Hovedside
METAR-TAF:

METAR-TAF

Lufthavner :

Sundsvall Timrå lufthavn

Sundsvall-Härnösand, Sverige

breddegrad: 62-32N, lengdegrad: 017-27E, høyde over havet: 4 m

Gjeldene værobservasjon

Denne rapporten ble laget for 32 minutter siden, klokken 08:20 UTC
Vind 7 kt fra Vest-nordvest
Temperatur -6°C
Luftfuktighet 93%
Trykk 1032 hPa
Sikt 10 km eller mer
ingen skyer under 1500 m og ingen bygeskyer

METAR: ESNN 120820Z 29007KT CAVOK M06/M07 Q1032 R16/79//52

Tid: 09:52 (08:52 UTC)

Varsel

Denne rapporten ble laget for 22 minutter siden, klokken 08:30 UTC
Varsel gyldig fra 12. klokken 09 UTC til 12. klokken 18 UTC
Vind 9 kt fra Nordvest
Sikt 10 km eller mer
ingen skyer under 1500 m og ingen bygeskyer

TAF: ESNN 120830Z 1209/1218 32009KT CAVOK

Værobservasjoner og værvarsel for over 4000 flyplasser (METAR- og TAF-rapporter).

Tilgjengelige stasjoner er representert av de røde og gule prikkene på kartet.

Hold musepekeren over prikken for å se navnet på stasjonen.

Klikk så for å se værobservasjoner og -varsler.

For å forandre kartet kan du klikke på den grønne knappen med svart kryss for å zoome inn, på den grønne knappen med strek for å zoome ut, eller på de grønne pilene for å se tilstøtende kart.


METAR-TAF: